Item Display Status Inductive CT Sensor

Mooring Depth: 120 m

 

Deployed Sensor

  • Serial Number: 4824
  • NDBC Property Number: 26483
  • Start Date: 11/5/2018 (13:33:04 Z)
  • End Date: Currently Active
Water Temperature [°C]     6 entries per hour
Showing data from 11/15/2019 (02:00:00 Z) to 11/14/2019 (00:00:01 Z)
Previous Next [ Day | 3-Days | 7-Days ]
First Last
Prev [ Day | 3-Days | 7-Days ] Next
First Last

Start Time:     :
End Time:     :     
Time (in GMT) :00 :50 :40 :30 :20 :10
Previous Next [ Day | 3-Days | 7-Days ]
First Last
Prev [ Day | 3-Days | 7-Days ] Next
First Last


123 => good data
MM => data is determined as missing
-- => data not received/configured
Back to Top Back to Top
11/15/2019 02:00 to 1:10 15.909 15.920 15.929 16.072 16.006 16.116
11/15/2019 01:00 to 0:10 16.048 16.019 16.064 16.048 16.127 15.924
11/15/2019 00:00 to 23:10 15.916 15.923 15.925 15.927 16.079 16.189
11/14/2019 23:00 to 22:10 16.333 16.333 16.182 16.244 16.219 16.333
11/14/2019 22:00 to 21:10 16.327 16.321 16.279 16.239 16.337 16.258
11/14/2019 21:00 to 20:10 16.181 16.265 16.281 16.118 16.214 16.191
11/14/2019 20:00 to 19:10 16.196 16.183 16.185 16.087 16.174 16.144
11/14/2019 19:00 to 18:10 16.081 16.120 16.098 16.089 16.101 16.127
11/14/2019 18:00 to 17:10 16.133 16.157 16.187 16.234 16.370 16.261
11/14/2019 17:00 to 16:10 16.215 16.317 16.264 16.210 16.286 16.276
11/14/2019 16:00 to 15:10 16.240 16.327 16.455 16.443 16.460 16.455
11/14/2019 15:00 to 14:10 16.376 16.378 16.281 16.288 16.055 16.244
11/14/2019 14:00 to 13:10 16.122 16.135 16.147 16.194 16.212 16.225
11/14/2019 13:00 to 12:10 16.235 16.298 16.274 16.276 16.089 16.167
11/14/2019 12:00 to 11:10 16.120 16.020 15.967 15.961 15.923 16.078
11/14/2019 11:00 to 10:10 16.182 16.253 16.398 16.466 16.543 16.405
11/14/2019 10:00 to 9:10 16.413 16.368 16.429 16.299 16.300 16.190
11/14/2019 09:00 to 8:10 16.174 16.121 16.125 16.067 16.137 16.219
11/14/2019 08:00 to 7:10 16.235 16.189 16.362 16.396 16.290 16.309
11/14/2019 07:00 to 6:10 16.301 16.377 16.263 16.311 16.174 16.240
11/14/2019 06:00 to 5:10 16.271 16.268 16.102 16.011 15.921 15.985
11/14/2019 05:00 to 4:10 15.983 15.934 15.886 15.969 15.945 15.879
11/14/2019 04:00 to 3:10 16.081 16.228 16.222 16.362 16.311 16.429
11/14/2019 03:00 to 2:10 16.422 16.336 16.423 16.415 16.315 16.349
11/14/2019 02:00 to 1:10 16.260 16.349 16.218 16.005 16.133 15.889
11/14/2019 01:00 to 0:10 16.167 16.134 16.243 16.240 16.471 16.030

 

 

 

Conductivity [S/m]     6 entries per hour
Showing data from 11/15/2019 (02:00:00 Z) to 11/14/2019 (00:00:01 Z)
Previous Next [ Day | 3-Days | 7-Days ]
First Last
Prev [ Day | 3-Days | 7-Days ] Next
First Last

Start Time:     :
End Time:     :     
Time (in GMT) :00 :50 :40 :30 :20 :10
Previous Next [ Day | 3-Days | 7-Days ]
First Last
Prev [ Day | 3-Days | 7-Days ] Next
First Last


123 => good data
MM => data is determined as missing
-- => data not received/configured
Back to Top Back to Top
11/15/2019 02:00 to 1:10 4.40342 4.40399 4.40663 4.42071 4.41398 4.42453
11/15/2019 01:00 to 0:10 4.41757 4.41632 4.41965 4.41861 4.42419 4.40469
11/15/2019 00:00 to 23:10 4.40353 4.40443 4.40458 4.40509 4.42130 4.43178
11/14/2019 23:00 to 22:10 4.44656 4.44580 4.43136 4.43592 4.43448 4.44564
11/14/2019 22:00 to 21:10 4.44598 4.44444 4.44063 4.43705 4.44627 4.43899
11/14/2019 21:00 to 20:10 4.43167 4.43952 4.44065 4.42508 4.43528 4.43269
11/14/2019 20:00 to 19:10 4.43364 4.43185 4.43236 4.42446 4.43143 4.42815
11/14/2019 19:00 to 18:10 4.42145 4.42561 4.42349 4.42218 4.42435 4.42643
11/14/2019 18:00 to 17:10 4.42674 4.43021 4.43189 4.43812 4.44847 4.43978
11/14/2019 17:00 to 16:10 4.43550 4.44462 4.43954 4.43666 4.44220 4.44048
11/14/2019 16:00 to 15:10 4.43803 4.44558 4.45886 4.45641 4.45484 4.45125
11/14/2019 15:00 to 14:10 4.45150 4.45080 4.44134 4.43974 4.41998 4.43814
11/14/2019 14:00 to 13:10 4.42466 4.42822 4.42968 4.43280 4.43528 4.43588
11/14/2019 13:00 to 12:10 4.43803 4.44362 4.44107 4.44003 4.42302 4.43141
11/14/2019 12:00 to 11:10 4.42665 4.41857 4.41008 4.40960 4.40370 4.42097
11/14/2019 11:00 to 10:10 4.43260 4.44052 4.45357 4.46086 4.46658 4.45430
11/14/2019 10:00 to 9:10 4.45635 4.45105 4.45703 4.44398 4.44643 4.43329
11/14/2019 09:00 to 8:10 4.43191 4.42656 4.42700 4.41580 4.42897 4.43634
11/14/2019 08:00 to 7:10 4.43821 4.43468 4.45052 4.45317 4.44356 4.44691
11/14/2019 07:00 to 6:10 4.44489 4.45168 4.44094 4.44616 4.43196 4.43974
11/14/2019 06:00 to 5:10 4.44178 4.44112 4.42276 4.41576 4.40683 4.40995
11/14/2019 05:00 to 4:10 4.40918 4.40665 4.40313 4.40898 4.40911 4.40109
11/14/2019 04:00 to 3:10 4.42453 4.43750 4.43790 4.44809 4.44580 4.45855
11/14/2019 03:00 to 2:10 4.45974 4.45059 4.45913 4.45915 4.44723 4.45124
11/14/2019 02:00 to 1:10 4.44294 4.44929 4.43801 4.41446 4.42561 4.40063
11/14/2019 01:00 to 0:10 4.43107 4.42693 4.43965 4.43759 4.46301 4.41740

 

 

 

Salinity [psu]     6 entries per hour
Showing data from 11/15/2019 (02:00:00 Z) to 11/14/2019 (00:00:01 Z)
Previous Next [ Day | 3-Days | 7-Days ]
First Last
Prev [ Day | 3-Days | 7-Days ] Next
First Last

Start Time:     :
End Time:     :     
Time (in GMT) :00 :50 :40 :30 :20 :10
Previous Next [ Day | 3-Days | 7-Days ]
First Last
Prev [ Day | 3-Days | 7-Days ] Next
First Last


123 => good data
MM => data is determined as missing
-- => data not received/configured
Back to Top Back to Top
11/15/2019 02:00 to 1:10 35.15 35.14 35.16 35.16 35.16 35.15
11/15/2019 01:00 to 0:10 35.15 35.17 35.16 35.16 35.14 35.15
11/15/2019 00:00 to 23:10 35.14 35.15 35.15 35.15 35.16 35.15
11/14/2019 23:00 to 22:10 35.16 35.15 35.16 35.14 35.15 35.15
11/14/2019 22:00 to 21:10 35.16 35.15 35.15 35.16 35.15 35.16
11/14/2019 21:00 to 20:10 35.16 35.16 35.15 35.16 35.16 35.16
11/14/2019 20:00 to 19:10 35.16 35.16 35.16 35.18 35.16 35.16
11/14/2019 19:00 to 18:10 35.16 35.16 35.16 35.16 35.16 35.16
11/14/2019 18:00 to 17:10 35.16 35.17 35.16 35.17 35.14 35.16
11/14/2019 17:00 to 16:10 35.16 35.15 35.16 35.18 35.16 35.15
11/14/2019 16:00 to 15:10 35.16 35.15 35.16 35.15 35.12 35.09
11/14/2019 15:00 to 14:10 35.16 35.16 35.16 35.14 35.17 35.16
11/14/2019 14:00 to 13:10 35.15 35.17 35.17 35.16 35.16 35.16
11/14/2019 13:00 to 12:10 35.17 35.16 35.16 35.15 35.16 35.17
11/14/2019 12:00 to 11:10 35.17 35.19 35.16 35.16 35.14 35.16
11/14/2019 11:00 to 10:10 35.17 35.17 35.16 35.17 35.15 35.16
11/14/2019 10:00 to 9:10 35.17 35.17 35.17 35.16 35.19 35.17
11/14/2019 09:00 to 8:10 35.17 35.17 35.17 35.12 35.17 35.17
11/14/2019 08:00 to 7:10 35.17 35.18 35.17 35.16 35.17 35.18
11/14/2019 07:00 to 6:10 35.17 35.16 35.17 35.17 35.17 35.18
11/14/2019 06:00 to 5:10 35.17 35.17 35.15 35.17 35.17 35.14
11/14/2019 05:00 to 4:10 35.13 35.16 35.17 35.14 35.17 35.15
11/14/2019 04:00 to 3:10 35.18 35.17 35.18 35.15 35.17 35.18
11/14/2019 03:00 to 2:10 35.20 35.19 35.19 35.20 35.18 35.18
11/14/2019 02:00 to 1:10 35.19 35.17 35.18 35.16 35.15 35.14
11/14/2019 01:00 to 0:10 35.17 35.16 35.18 35.16 35.18 35.17